Time;durP1;ratioP1;P1;durP2;ratioP2;P2;SDS_P1;SDS_P2;PMS_P1;PMS_P2;Temp;Humidity;BMP_temperature;BMP_pressure;BME280_temperature;BME280_humidity;BME280_pressure;Samples;Min_cycle;Max_cycle;Signal;HPM_P1;HPM_P2
2021/09/09 00:02:02;;;;;;;9.60;8.60;;;22.60;92.90;;;;;;4981080;28;21025;-75
2021/09/09 00:04:27;;;;;;;12.20;8.10;;;22.60;92.90;;;;;;4983053;28;20590;-73
2021/09/09 00:06:53;;;;;;;8.80;8.00;;;22.50;93.00;;;;;;4985262;28;20475;-73
2021/09/09 00:09:19;;;;;;;11.00;8.60;;;22.50;93.30;;;;;;4979858;28;20680;-73
2021/09/09 00:11:45;;;;;;;10.80;8.70;;;22.20;93.80;;;;;;4968627;28;20197;-73
2021/09/09 00:14:11;;;;;;;9.17;8.27;;;22.20;94.10;;;;;;4980852;28;21937;-73
2021/09/09 00:16:37;;;;;;;10.30;8.50;;;22.10;94.60;;;;;;4982518;28;20472;-75
2021/09/09 00:19:03;;;;;;;11.93;8.10;;;22.00;94.90;;;;;;4968819;28;20453;-74
2021/09/09 00:21:29;;;;;;;9.60;8.60;;;21.80;95.50;;;;;;4981698;28;20190;-74
2021/09/09 00:23:54;;;;;;;10.53;7.93;;;21.70;95.70;;;;;;4987704;28;20440;-75
2021/09/09 00:26:20;;;;;;;9.10;8.13;;;22.20;95.30;;;;;;4981240;28;20633;-74
2021/09/09 00:28:46;;;;;;;8.63;7.30;;;22.10;95.60;;;;;;4980409;28;20195;-75
2021/09/09 00:31:11;;;;;;;9.80;8.80;;;22.20;95.70;;;;;;4998088;28;20193;-74
2021/09/09 00:33:38;;;;;;;8.30;7.50;;;22.50;95.20;;;;;;4967750;28;20681;-75
2021/09/09 00:36:04;;;;;;;9.80;8.90;;;22.50;95.30;;;;;;4980526;28;20213;-66
2021/09/09 00:38:29;;;;;;;9.00;8.20;;;22.30;95.40;;;;;;4982300;28;20436;-66
2021/09/09 00:40:56;;;;;;;8.80;8.00;;;22.30;95.80;;;;;;4979872;28;20441;-66
2021/09/09 00:43:21;;;;;;;9.17;8.20;;;22.00;96.20;;;;;;4981786;28;20280;-66
2021/09/09 00:45:52;;;;;;;12.63;8.10;;;22.20;96.20;;;;;;4981955;28;20563;-65
2021/09/09 00:48:18;;;;;;;9.73;7.90;;;22.40;95.90;;;;;;4978892;28;20189;-66
2021/09/09 00:50:45;;;;;;;9.63;7.60;;;22.30;96.10;;;;;;4980564;28;20441;-65
2021/09/09 00:53:10;;;;;;;9.43;7.83;;;22.40;95.90;;;;;;4984940;28;20433;-65
2021/09/09 00:55:37;;;;;;;9.77;8.20;;;22.30;96.70;;;;;;4964938;28;20803;-65
2021/09/09 00:58:02;;;;;;;8.33;7.53;;;22.30;96.50;;;;;;4983958;28;20707;-65
2021/09/09 01:00:28;;;;;;;10.10;8.63;;;22.30;96.70;;;;;;4987432;28;20520;-65
2021/09/09 01:02:54;;;;;;;11.23;9.10;;;22.20;96.70;;;;;;4983886;28;20194;-66
2021/09/09 01:05:19;;;;;;;12.77;9.33;;;21.90;97.40;;;;;;4973474;28;20201;-66
2021/09/09 01:07:45;;;;;;;9.17;8.27;;;22.10;97.40;;;;;;4982804;28;20217;-66
2021/09/09 01:10:11;;;;;;;9.20;8.20;;;22.30;97.20;;;;;;4988465;28;20413;-66
2021/09/09 01:12:37;;;;;;;12.20;8.93;;;22.10;97.50;;;;;;5003108;28;20189;-65
2021/09/09 01:15:05;;;;;;;8.50;7.60;;;22.00;98.10;;;;;;4985668;28;20456;-66
2021/09/09 01:17:30;;;;;;;9.50;8.47;;;21.90;98.20;;;;;;4983650;28;20240;-66
2021/09/09 01:19:56;;;;;;;8.10;7.37;;;22.10;98.10;;;;;;4987419;28;21094;-66
2021/09/09 01:22:22;;;;;;;8.50;7.60;;;22.30;98.00;;;;;;4985140;28;20198;-67
2021/09/09 01:24:48;;;;;;;8.67;7.87;;;22.10;98.10;;;;;;4983605;28;20225;-65
2021/09/09 01:27:17;;;;;;;10.83;8.63;;;21.80;98.80;;;;;;4985380;28;20217;-66
2021/09/09 01:29:43;;;;;;;10.37;7.77;;;21.90;99.00;;;;;;5001111;28;20595;-65
2021/09/09 01:32:09;;;;;;;9.63;8.60;;;22.00;98.80;;;;;;4982214;28;20441;-66
2021/09/09 01:34:35;;;;;;;9.07;8.17;;;21.90;99.20;;;;;;4985590;28;20448;-66
2021/09/09 01:37:01;;;;;;;9.10;8.20;;;22.10;98.90;;;;;;4989097;28;20547;-66
2021/09/09 01:39:28;;;;;;;9.47;8.33;;;22.10;99.10;;;;;;4984156;28;20648;-65
2021/09/09 01:41:55;;;;;;;8.20;7.40;;;22.00;99.20;;;;;;4984007;28;20201;-66
2021/09/09 01:44:22;;;;;;;9.73;8.23;;;22.10;99.10;;;;;;4986371;28;20838;-66
2021/09/09 01:46:48;;;;;;;9.87;8.97;;;22.00;99.30;;;;;;4982816;28;21022;-66
2021/09/09 01:49:16;;;;;;;9.00;8.10;;;21.90;99.40;;;;;;5002305;28;20527;-65
2021/09/09 01:51:42;;;;;;;10.33;9.23;;;21.70;99.90;;;;;;4983449;28;20814;-65
2021/09/09 01:54:08;;;;;;;9.43;8.60;;;21.70;99.90;;;;;;4985506;28;20503;-66
2021/09/09 01:56:34;;;;;;;8.90;8.10;;;21.60;99.90;;;;;;4987838;28;20209;-66
2021/09/09 01:59:01;;;;;;;10.40;9.40;;;21.40;99.90;;;;;;4985625;28;20199;-65
2021/09/09 02:01:26;;;;;;;11.70;8.37;;;21.30;99.90;;;;;;4982502;28;20453;-66
2021/09/09 02:03:52;;;;;;;9.33;8.37;;;21.20;99.90;;;;;;4984710;28;20487;-66
2021/09/09 02:06:18;;;;;;;11.30;9.13;;;21.00;99.90;;;;;;4984241;28;20216;-66
2021/09/09 02:08:44;;;;;;;9.70;8.70;;;21.10;99.90;;;;;;4987107;28;20192;-67
2021/09/09 02:11:10;;;;;;;10.37;8.30;;;21.10;99.90;;;;;;4982217;28;20186;-65
2021/09/09 02:13:38;;;;;;;9.97;8.83;;;21.20;99.90;;;;;;4985755;28;20242;-66
2021/09/09 02:16:05;;;;;;;14.40;10.67;;;21.30;99.90;;;;;;4983881;28;20509;-66
2021/09/09 02:18:31;;;;;;;11.40;10.10;;;21.30;99.90;;;;;;4984286;28;20439;-66
2021/09/09 02:20:57;;;;;;;12.70;9.30;;;21.20;99.90;;;;;;5002882;28;20979;-66
2021/09/09 02:23:22;;;;;;;11.17;10.00;;;21.10;99.90;;;;;;4985802;28;20194;-66
2021/09/09 02:25:48;;;;;;;11.70;10.07;;;20.90;99.90;;;;;;4984711;28;20210;-66
2021/09/09 02:28:14;;;;;;;11.43;9.23;;;20.80;99.90;;;;;;4988316;28;20786;-66
2021/09/09 02:30:43;;;;;;;12.70;10.03;;;21.00;99.90;;;;;;4983509;28;20602;-66
2021/09/09 02:33:09;;;;;;;11.23;9.63;;;20.80;99.90;;;;;;4983960;28;20193;-65
2021/09/09 02:35:35;;;;;;;11.30;9.87;;;20.90;99.90;;;;;;4983935;28;20563;-65
2021/09/09 02:38:01;;;;;;;10.17;9.17;;;20.90;99.90;;;;;;4982979;28;20555;-65
2021/09/09 02:40:27;;;;;;;11.27;10.10;;;20.80;99.90;;;;;;4985623;28;20226;-65
2021/09/09 02:42:53;;;;;;;10.70;9.60;;;20.80;99.90;;;;;;4995349;28;20194;-64
2021/09/09 02:45:19;;;;;;;11.90;10.67;;;20.70;99.90;;;;;;4985828;28;20260;-66
2021/09/09 02:47:45;;;;;;;9.87;8.87;;;20.70;99.90;;;;;;4985243;28;20476;-66
2021/09/09 02:50:11;;;;;;;14.47;11.00;;;20.90;99.90;;;;;;4969219;28;20877;-66
2021/09/09 02:52:37;;;;;;;11.83;10.40;;;20.70;99.90;;;;;;4984059;28;20186;-67
2021/09/09 02:55:03;;;;;;;10.70;9.60;;;20.60;99.90;;;;;;4983151;28;20525;-65
2021/09/09 02:57:29;;;;;;;10.93;9.83;;;20.80;99.90;;;;;;4990737;28;20213;-65
2021/09/09 02:59:54;;;;;;;11.27;9.93;;;20.70;99.90;;;;;;4984434;28;20449;-74
2021/09/09 03:02:20;;;;;;;10.60;9.30;;;20.70;99.90;;;;;;4983092;28;20210;-73
2021/09/09 03:04:46;;;;;;;10.10;8.80;;;20.70;99.90;;;;;;4982657;28;20592;-73
2021/09/09 03:07:11;;;;;;;13.37;9.93;;;20.50;99.90;;;;;;4981019;28;20217;-73
2021/09/09 03:09:37;;;;;;;9.80;8.70;;;20.70;99.90;;;;;;4984840;28;20265;-74
2021/09/09 03:12:03;;;;;;;11.93;9.63;;;20.80;99.90;;;;;;4982704;28;20293;-75
2021/09/09 03:14:29;;;;;;;11.20;10.00;;;20.70;99.90;;;;;;4983856;28;20269;-74
2021/09/09 03:16:55;;;;;;;12.47;9.93;;;20.60;99.90;;;;;;4985937;28;20912;-74
2021/09/09 03:19:21;;;;;;;10.00;8.93;;;20.70;99.90;;;;;;4981622;28;20240;-74
2021/09/09 03:21:46;;;;;;;14.07;10.07;;;21.00;99.90;;;;;;4982343;28;20448;-74
2021/09/09 03:24:13;;;;;;;9.87;8.97;;;21.20;99.90;;;;;;4982495;28;20676;-74
2021/09/09 03:26:39;;;;;;;11.27;9.53;;;21.40;99.90;;;;;;4982217;28;20221;-75
2021/09/09 03:29:05;;;;;;;10.53;9.43;;;21.30;99.90;;;;;;4988194;28;20532;-74
2021/09/09 03:31:31;;;;;;;12.20;9.57;;;21.00;99.90;;;;;;4983681;28;20465;-73
2021/09/09 03:33:57;;;;;;;11.60;9.10;;;20.90;99.90;;;;;;4985528;28;20446;-73
2021/09/09 03:36:23;;;;;;;10.03;8.23;;;20.90;99.90;;;;;;4983254;28;20475;-74
2021/09/09 03:38:49;;;;;;;10.70;8.70;;;21.10;99.90;;;;;;4981419;28;20205;-74
2021/09/09 03:41:14;;;;;;;9.83;8.53;;;21.30;99.90;;;;;;4984415;28;20198;-75
2021/09/09 03:43:40;;;;;;;9.77;8.77;;;21.40;99.90;;;;;;4964932;28;20202;-74
2021/09/09 03:46:06;;;;;;;10.90;9.07;;;21.30;99.90;;;;;;4984818;28;20343;-74
2021/09/09 03:48:31;;;;;;;10.73;8.50;;;20.90;99.90;;;;;;5000863;28;20201;-74
2021/09/09 03:50:57;;;;;;;10.70;9.10;;;20.90;99.90;;;;;;4981017;28;20213;-74
2021/09/09 03:53:23;;;;;;;9.37;8.47;;;20.80;99.90;;;;;;4983359;28;20189;-75
2021/09/09 03:55:48;;;;;;;12.60;9.30;;;20.60;99.90;;;;;;4968387;28;20213;-74
2021/09/09 03:58:14;;;;;;;10.83;9.37;;;20.70;99.90;;;;;;4982845;28;20273;-73
2021/09/09 04:00:40;;;;;;;10.20;9.10;;;21.00;99.90;;;;;;4985403;28;20209;-73
2021/09/09 04:03:05;;;;;;;13.23;9.17;;;20.60;99.90;;;;;;4966769;28;20231;-73
2021/09/09 04:05:31;;;;;;;10.70;9.03;;;20.70;99.90;;;;;;4985637;28;20660;-73
2021/09/09 04:07:57;;;;;;;10.73;8.80;;;20.80;99.90;;;;;;4982024;28;20213;-66
2021/09/09 04:10:23;;;;;;;10.43;8.20;;;20.90;99.90;;;;;;4981707;28;20446;-66
2021/09/09 04:12:49;;;;;;;9.80;8.80;;;20.90;99.90;;;;;;4984468;28;20452;-67
2021/09/09 04:15:15;;;;;;;10.83;8.70;;;20.90;99.90;;;;;;4979460;28;20767;-66
2021/09/09 04:17:41;;;;;;;9.97;8.57;;;21.00;99.90;;;;;;4964861;28;20224;-66
2021/09/09 04:20:07;;;;;;;10.07;8.83;;;20.90;99.90;;;;;;4980854;28;20198;-66
2021/09/09 04:22:34;;;;;;;9.13;8.17;;;20.70;99.90;;;;;;4980802;28;20460;-68
2021/09/09 04:25:02;;;;;;;12.33;8.77;;;20.90;99.90;;;;;;4985891;28;20444;-66
2021/09/09 04:27:27;;;;;;;8.87;7.97;;;20.50;99.90;;;;;;4981531;28;20476;-66
2021/09/09 04:29:53;;;;;;;10.10;8.87;;;20.20;99.90;;;;;;4982475;28;20453;-66
2021/09/09 04:32:19;;;;;;;10.00;9.00;;;20.50;99.90;;;;;;4983686;28;20196;-67
2021/09/09 04:34:45;;;;;;;9.67;8.50;;;20.50;99.90;;;;;;4988689;28;20473;-66
2021/09/09 04:37:10;;;;;;;10.23;9.20;;;20.50;99.90;;;;;;4990037;28;20217;-67
2021/09/09 04:39:36;;;;;;;9.80;8.33;;;20.50;99.90;;;;;;4989304;28;20193;-67
2021/09/09 04:42:02;;;;;;;10.00;9.00;;;20.50;99.90;;;;;;4987676;28;20226;-75
2021/09/09 04:44:28;;;;;;;10.37;8.57;;;20.70;99.90;;;;;;5005952;28;20193;-66
2021/09/09 04:46:54;;;;;;;12.03;9.00;;;20.80;99.90;;;;;;4987931;28;20600;-73
2021/09/09 04:49:19;;;;;;;9.63;8.67;;;20.60;99.90;;;;;;5009192;28;20664;-73
2021/09/09 04:51:45;;;;;;;10.43;9.43;;;20.40;99.90;;;;;;4988053;28;20455;-69
2021/09/09 04:54:11;;;;;;;14.83;8.17;;;20.10;99.90;;;;;;4988757;28;20221;-70
2021/09/09 04:56:36;;;;;;;11.97;9.07;;;20.00;99.90;;;;;;4989291;28;20275;-69
2021/09/09 04:59:02;;;;;;;10.73;8.70;;;20.10;99.90;;;;;;4992479;28;20915;-68
2021/09/09 05:01:28;;;;;;;10.37;9.20;;;20.00;99.90;;;;;;4989182;28;20193;-74
2021/09/09 05:03:54;;;;;;;9.97;8.83;;;20.00;99.90;;;;;;5007754;28;20441;-66
2021/09/09 05:06:20;;;;;;;8.80;7.90;;;20.10;99.90;;;;;;4989690;28;20217;-66
2021/09/09 05:08:46;;;;;;;11.27;10.20;;;20.10;99.90;;;;;;4987708;28;20197;-65
2021/09/09 05:11:12;;;;;;;9.90;8.90;;;20.20;99.90;;;;;;4989651;28;20442;-65
2021/09/09 05:13:38;;;;;;;11.60;8.87;;;20.20;99.90;;;;;;4987783;28;20539;-65
2021/09/09 05:16:07;;;;;;;10.37;8.47;;;20.30;99.90;;;;;;4988235;28;20291;-66
2021/09/09 05:18:33;;;;;;;9.07;8.17;;;20.50;99.90;;;;;;4988243;28;20536;-66
2021/09/09 05:20:58;;;;;;;8.97;7.90;;;20.60;99.90;;;;;;4990069;28;21126;-74
2021/09/09 05:23:24;;;;;;;9.37;8.47;;;20.50;99.90;;;;;;4990149;28;20193;-74
2021/09/09 05:25:50;;;;;;;11.03;9.00;;;20.50;99.90;;;;;;4987346;28;20218;-67
2021/09/09 05:28:16;;;;;;;13.73;8.83;;;20.60;99.90;;;;;;5002811;28;20445;-71
2021/09/09 05:30:41;;;;;;;11.43;9.10;;;20.80;99.90;;;;;;4989625;28;20243;-70
2021/09/09 05:33:07;;;;;;;9.43;8.50;;;20.90;99.90;;;;;;4986335;28;20986;-67
2021/09/09 05:35:34;;;;;;;10.90;9.37;;;20.90;99.90;;;;;;4973706;28;20715;-73
2021/09/09 05:38:00;;;;;;;10.47;9.30;;;20.90;99.90;;;;;;4986640;28;20289;-73
2021/09/09 05:40:25;;;;;;;12.17;10.30;;;20.80;99.90;;;;;;4987492;28;22036;-73
2021/09/09 05:42:51;;;;;;;12.80;9.57;;;21.00;99.90;;;;;;4972357;28;20193;-70
2021/09/09 05:45:17;;;;;;;11.17;9.80;;;21.10;99.90;;;;;;4986835;28;20216;-70
2021/09/09 05:47:42;;;;;;;12.63;8.67;;;21.30;99.90;;;;;;4987317;28;20576;-70
2021/09/09 05:50:08;;;;;;;10.57;9.47;;;21.30;99.90;;;;;;4999671;28;20201;-74
2021/09/09 05:52:34;;;;;;;11.47;9.37;;;21.00;99.90;;;;;;4985116;28;20194;-74
2021/09/09 05:55:00;;;;;;;10.53;9.47;;;21.10;99.90;;;;;;4969081;28;20440;-69
2021/09/09 05:57:26;;;;;;;12.07;9.33;;;21.20;99.90;;;;;;4985162;28;20213;-69
2021/09/09 05:59:52;;;;;;;14.47;9.03;;;21.30;99.90;;;;;;4985636;28;20225;-66
2021/09/09 06:02:19;;;;;;;10.90;9.53;;;21.20;99.90;;;;;;4985756;28;20210;-65
2021/09/09 06:04:47;;;;;;;11.30;9.80;;;20.90;99.90;;;;;;4983351;28;20393;-67
2021/09/09 06:07:13;;;;;;;9.70;8.80;;;20.80;99.90;;;;;;4985752;28;20560;-66
2021/09/09 06:09:40;;;;;;;14.33;9.47;;;20.80;99.90;;;;;;4984555;28;20436;-66
2021/09/09 06:12:07;;;;;;;10.97;9.47;;;21.00;99.90;;;;;;4985658;28;20453;-66
2021/09/09 06:14:33;;;;;;;10.53;8.97;;;21.00;99.90;;;;;;4969018;28;20442;-70
2021/09/09 06:16:58;;;;;;;10.93;9.20;;;20.90;99.90;;;;;;4985307;28;20993;-69
2021/09/09 06:19:25;;;;;;;10.57;9.47;;;21.00;99.90;;;;;;4982068;28;20189;-69
2021/09/09 06:21:51;;;;;;;12.00;10.20;;;21.10;99.90;;;;;;4982465;28;20293;-71
2021/09/09 06:24:17;;;;;;;12.07;9.93;;;21.10;99.90;;;;;;4987496;28;20453;-69
2021/09/09 06:26:43;;;;;;;12.57;10.57;;;21.10;99.90;;;;;;4984063;28;20535;-70
2021/09/09 06:29:09;;;;;;;13.20;10.40;;;21.10;99.90;;;;;;4985205;28;20182;-70
2021/09/09 06:31:35;;;;;;;19.50;10.73;;;21.30;99.90;;;;;;4983764;28;20756;-70
2021/09/09 06:34:00;;;;;;;10.53;9.53;;;21.50;99.90;;;;;;4980450;28;20221;-69
2021/09/09 06:36:26;;;;;;;15.37;10.27;;;21.60;99.90;;;;;;4986314;28;20460;-69
2021/09/09 06:38:52;;;;;;;13.60;10.80;;;21.60;99.90;;;;;;4986702;28;20221;-72
2021/09/09 06:41:18;;;;;;;12.50;10.23;;;21.40;99.90;;;;;;5000067;28;20217;-71
2021/09/09 06:43:44;;;;;;;10.50;9.40;;;21.30;99.90;;;;;;4988199;28;20197;-71
2021/09/09 06:46:10;;;;;;;12.83;11.17;;;21.40;99.90;;;;;;4985606;28;20472;-70
2021/09/09 06:48:36;;;;;;;10.80;9.70;;;21.30;99.90;;;;;;4982829;28;21073;-66
2021/09/09 06:51:02;;;;;;;10.33;9.33;;;21.40;99.90;;;;;;4986049;28;20190;-66
2021/09/09 06:53:32;;;;;;;11.47;10.30;;;21.20;99.90;;;;;;4983148;28;20946;-67
2021/09/09 06:55:58;;;;;;;11.40;10.20;;;21.40;99.90;;;;;;4983505;28;20469;-65
2021/09/09 06:58:24;;;;;;;10.83;9.70;;;21.10;99.90;;;;;;4982071;28;20440;-76
2021/09/09 07:00:50;;;;;;;15.60;11.00;;;21.10;99.90;;;;;;4986918;28;20190;-75
2021/09/09 07:03:16;;;;;;;12.80;10.17;;;21.30;99.90;;;;;;4997989;28;20206;-70
2021/09/09 07:05:42;;;;;;;13.03;9.80;;;21.50;99.90;;;;;;4975062;28;20542;-69
2021/09/09 07:08:08;;;;;;;11.47;9.83;;;21.40;99.90;;;;;;4980596;28;20536;-73
2021/09/09 07:10:34;;;;;;;13.50;9.90;;;21.60;99.90;;;;;;4999167;28;20206;-65
2021/09/09 07:13:03;;;;;;;10.77;9.67;;;21.40;99.90;;;;;;4983412;28;20182;-74
2021/09/09 07:15:28;;;;;;;12.73;11.27;;;21.30;99.90;;;;;;4986023;28;20503;-69
2021/09/09 07:17:54;;;;;;;14.40;10.27;;;21.30;99.90;;;;;;4980399;28;20189;-70
2021/09/09 07:20:20;;;;;;;14.93;11.00;;;21.30;99.90;;;;;;4980377;28;20384;-75
2021/09/09 07:22:57;;;;;;;11.50;9.90;;;21.40;99.90;;;;;;4976027;28;20196;-67
2021/09/09 07:25:29;;;;;;;10.00;9.00;;;21.40;99.90;;;;;;4971556;28;20201;-65
2021/09/09 07:27:55;;;;;;;10.83;9.77;;;21.20;99.90;;;;;;4982475;28;20477;-65
2021/09/09 07:30:20;;;;;;;10.83;9.70;;;21.40;99.90;;;;;;4982065;28;20448;-65
2021/09/09 07:32:46;;;;;;;11.70;10.50;;;21.30;99.90;;;;;;4982495;28;20198;-75
2021/09/09 07:35:12;;;;;;;10.17;9.17;;;21.20;99.90;;;;;;4985025;28;20653;-67
2021/09/09 07:37:39;;;;;;;12.73;10.73;;;21.10;99.90;;;;;;4982390;28;20209;-67
2021/09/09 07:40:06;;;;;;;11.80;10.50;;;21.20;99.90;;;;;;4982806;28;20449;-68
2021/09/09 07:42:33;;;;;;;10.97;9.87;;;21.20;99.90;;;;;;4998243;28;21344;-69
2021/09/09 07:44:59;;;;;;;11.10;9.50;;;21.30;99.90;;;;;;4997682;28;20524;-74
2021/09/09 07:47:26;;;;;;;12.57;10.40;;;21.40;99.90;;;;;;4947777;28;20559;-70
2021/09/09 07:49:51;;;;;;;13.83;11.13;;;21.50;99.90;;;;;;4996501;28;20209;-70
2021/09/09 07:52:17;;;;;;;10.73;9.73;;;21.50;99.90;;;;;;4981621;28;20449;-70
2021/09/09 07:54:43;;;;;;;10.70;9.43;;;21.60;99.90;;;;;;4977919;28;20189;-71
2021/09/09 07:57:09;;;;;;;10.30;9.33;;;21.60;99.90;;;;;;4981971;28;20224;-70
2021/09/09 07:59:35;;;;;;;12.27;10.33;;;21.80;99.90;;;;;;4997736;28;20453;-71
2021/09/09 08:02:01;;;;;;;11.97;10.20;;;21.70;99.90;;;;;;4981228;28;20496;-74
2021/09/09 08:04:27;;;;;;;16.57;11.37;;;21.60;99.90;;;;;;4977613;28;21126;-74
2021/09/09 08:06:56;;;;;;;11.10;10.10;;;21.60;99.90;;;;;;4977331;28;20843;-71
2021/09/09 08:09:22;;;;;;;13.03;11.30;;;21.70;99.90;;;;;;4981311;28;20221;-67
2021/09/09 08:11:48;;;;;;;13.17;10.17;;;21.80;99.90;;;;;;4979635;28;20940;-68
2021/09/09 08:14:14;;;;;;;11.83;10.63;;;21.90;99.90;;;;;;4961414;28;20201;-71
2021/09/09 08:16:40;;;;;;;11.50;10.30;;;21.90;99.90;;;;;;4979262;28;20218;-71
2021/09/09 08:19:06;;;;;;;12.57;10.43;;;21.90;99.90;;;;;;4981175;28;20539;-71
2021/09/09 08:21:32;;;;;;;12.80;10.60;;;22.00;99.90;;;;;;4995707;28;20994;-70
2021/09/09 08:23:58;;;;;;;11.77;10.53;;;22.10;99.90;;;;;;4980242;28;20198;-70
2021/09/09 08:26:23;;;;;;;11.33;10.10;;;22.20;99.90;;;;;;4982056;28;20476;-67
2021/09/09 08:28:49;;;;;;;9.37;8.43;;;22.20;99.90;;;;;;4998226;28;20198;-67
2021/09/09 08:31:16;;;;;;;10.83;8.73;;;22.30;99.90;;;;;;4980981;28;20185;-68
2021/09/09 08:33:42;;;;;;;11.13;9.00;;;22.30;99.90;;;;;;4980723;28;20648;-69
2021/09/09 08:36:12;;;;;;;12.43;8.40;;;22.40;99.90;;;;;;4980667;28;21098;-75
2021/09/09 08:38:51;;;;;;;11.13;8.60;;;22.60;99.90;;;;;;4995961;28;20491;-75
2021/09/09 08:41:19;;;;;;;9.37;7.50;;;22.60;99.90;;;;;;4993101;28;20478;-75
2021/09/09 08:43:50;;;;;;;9.20;8.10;;;22.70;99.90;;;;;;4980296;28;20564;-76
2021/09/09 08:46:17;;;;;;;8.67;7.80;;;22.80;99.90;;;;;;4981419;28;20895;-74
2021/09/09 08:48:44;;;;;;;8.17;7.40;;;22.90;99.90;;;;;;4975701;28;20452;-76
2021/09/09 08:51:17;;;;;;;8.40;7.63;;;23.00;99.90;;;;;;4981683;28;20443;-74
2021/09/09 08:53:44;;;;;;;11.93;9.97;;;23.10;99.90;;;;;;4979193;28;20437;-73
2021/09/09 08:56:13;;;;;;;8.87;7.97;;;23.10;99.90;;;;;;4979951;28;20992;-71
2021/09/09 08:58:40;;;;;;;7.50;6.80;;;23.20;99.90;;;;;;4978986;28;20815;-71
2021/09/09 09:01:18;;;;;;;9.23;8.33;;;23.30;99.90;;;;;;4981367;28;20867;-68
2021/09/09 09:07:33;;;;;;;9.00;7.10;;;23.40;99.90;;;;;;4920639;29;20498;-65
2021/09/09 09:10:00;;;;;;;8.10;6.90;;;23.60;99.90;;;;;;4993368;28;20478;-75
2021/09/09 09:12:44;;;;;;;7.23;5.97;;;23.70;99.90;;;;;;4997413;28;20440;-73
2021/09/09 09:15:21;;;;;;;7.53;6.70;;;23.90;99.90;;;;;;4981106;28;20491;-69
2021/09/09 09:18:09;;;;;;;9.10;6.87;;;24.00;99.90;;;;;;4996066;28;20483;-67
2021/09/09 09:20:42;;;;;;;12.73;6.43;;;24.10;99.90;;;;;;4984527;28;20442;-65
2021/09/09 09:23:12;;;;;;;7.40;6.80;;;24.30;99.90;;;;;;4985389;28;20440;-65
2021/09/09 09:25:50;;;;;;;9.33;6.73;;;24.30;99.90;;;;;;4983926;28;20437;-65
2021/09/09 09:28:37;;;;;;;9.17;6.97;;;24.20;99.90;;;;;;4984863;28;20967;-67
2021/09/09 09:31:24;;;;;;;12.73;6.37;;;24.20;99.90;;;;;;4985211;28;20441;-67
2021/09/09 09:33:56;;;;;;;7.50;6.80;;;24.10;99.90;;;;;;4971608;28;20437;-67
2021/09/09 09:36:45;;;;;;;6.93;5.97;;;24.10;99.90;;;;;;4980921;28;20545;-67
2021/09/09 09:39:18;;;;;;;8.13;7.03;;;24.10;99.90;;;;;;4985484;28;20426;-67
2021/09/09 09:42:00;;;;;;;8.33;6.03;;;24.10;99.90;;;;;;4983990;28;20877;-67
2021/09/09 09:44:30;;;;;;;6.60;5.90;;;24.00;99.90;;;;;;4981033;28;20932;-67
2021/09/09 09:47:18;;;;;;;6.47;5.53;;;24.00;99.90;;;;;;4987499;28;20473;-67
2021/09/09 09:49:49;;;;;;;6.87;6.17;;;24.10;99.90;;;;;;4987220;28;20528;-66
2021/09/09 09:52:25;;;;;;;6.07;5.47;;;24.10;99.90;;;;;;4982939;28;20521;-66
2021/09/09 09:54:59;;;;;;;6.40;5.63;;;24.10;99.90;;;;;;4998328;28;20527;-66
2021/09/09 09:57:27;;;;;;;7.43;5.90;;;24.20;99.90;;;;;;4987097;28;20580;-65
2021/09/09 09:59:54;;;;;;;5.80;5.17;;;24.20;99.90;;;;;;4984234;28;20449;-66
2021/09/09 10:02:20;;;;;;;6.50;4.90;;;24.40;99.90;;;;;;4984502;28;20494;-66
2021/09/09 10:04:48;;;;;;;5.27;4.77;;;24.30;99.90;;;;;;4983764;28;20445;-67
2021/09/09 10:07:14;;;;;;;6.93;5.57;;;24.30;99.90;;;;;;4982937;28;20473;-67
2021/09/09 10:09:49;;;;;;;6.70;6.00;;;24.30;99.90;;;;;;4981527;28;20452;-68
2021/09/09 10:12:15;;;;;;;6.00;5.40;;;24.20;99.90;;;;;;4985352;28;20474;-69
2021/09/09 10:14:51;;;;;;;7.20;5.67;;;24.10;99.90;;;;;;4983965;28;20473;-68
2021/09/09 10:17:26;;;;;;;6.80;6.20;;;24.20;99.90;;;;;;4984241;28;20217;-67
2021/09/09 10:19:52;;;;;;;7.20;5.40;;;24.20;99.90;;;;;;4977597;28;20531;-67
2021/09/09 10:22:21;;;;;;;5.63;5.10;;;24.30;99.90;;;;;;4985319;28;20539;-66
2021/09/09 10:24:51;;;;;;;7.23;5.63;;;24.40;99.90;;;;;;4967713;28;20244;-66
2021/09/09 10:27:32;;;;;;;5.90;5.30;;;24.30;99.90;;;;;;4985153;28;20476;-67
2021/09/09 10:30:00;;;;;;;5.33;4.83;;;24.30;99.90;;;;;;4981912;28;20588;-66
2021/09/09 10:32:29;;;;;;;7.27;6.30;;;24.20;99.90;;;;;;4982721;28;20444;-67
2021/09/09 10:35:20;;;;;;;6.00;5.17;;;24.20;99.90;;;;;;4983381;28;20449;-67
2021/09/09 10:37:50;;;;;;;5.50;4.83;;;24.30;99.90;;;;;;4981984;28;20472;-67
2021/09/09 10:40:28;;;;;;;9.73;5.97;;;24.40;99.90;;;;;;5000904;28;20521;-68
2021/09/09 10:42:55;;;;;;;9.00;5.27;;;24.40;99.90;;;;;;4982396;28;20789;-68
2021/09/09 10:45:37;;;;;;;5.83;5.27;;;24.60;99.90;;;;;;5000035;28;21175;-68
2021/09/09 10:48:05;;;;;;;8.30;5.30;;;24.50;99.90;;;;;;5002282;28;20473;-68
2021/09/09 10:50:32;;;;;;;6.33;5.77;;;24.60;99.90;;;;;;4980945;28;20822;-68
2021/09/09 10:53:06;;;;;;;5.90;5.40;;;24.60;99.90;;;;;;4980650;28;20445;-67
2021/09/09 10:55:34;;;;;;;10.97;5.97;;;24.60;99.90;;;;;;4982148;28;20441;-67
2021/09/09 10:58:17;;;;;;;6.90;5.40;;;24.50;99.90;;;;;;4963431;28;20445;-67
2021/09/09 11:01:02;;;;;;;5.40;4.90;;;24.60;99.90;;;;;;4997407;28;20436;-67
2021/09/09 11:03:40;;;;;;;6.17;5.37;;;24.70;99.90;;;;;;4982965;28;20445;-68
2021/09/09 11:06:21;;;;;;;8.57;5.40;;;24.70;99.90;;;;;;4981604;28;20531;-68
2021/09/09 11:08:49;;;;;;;6.93;6.33;;;24.70;99.90;;;;;;4984628;28;20440;-67
2021/09/09 11:11:29;;;;;;;7.80;5.60;;;24.60;99.90;;;;;;4964434;28;20446;-67
2021/09/09 11:14:02;;;;;;;11.63;6.33;;;24.90;99.90;;;;;;4979096;28;20437;-68
2021/09/09 11:16:33;;;;;;;7.57;6.37;;;25.00;99.90;;;;;;4979080;28;21076;-67
2021/09/09 11:18:59;;;;;;;10.50;5.57;;;25.10;99.90;;;;;;4993110;28;20444;-68
2021/09/09 11:21:31;;;;;;;7.00;5.47;;;25.20;99.90;;;;;;4976988;28;20578;-66
2021/09/09 11:24:02;;;;;;;9.77;6.07;;;25.30;99.90;;;;;;4978572;28;21018;-66
2021/09/09 11:26:29;;;;;;;8.50;5.80;;;25.50;99.90;;;;;;4979288;28;21106;-66
2021/09/09 11:28:56;;;;;;;10.93;6.20;;;25.30;99.90;;;;;;4977710;28;20483;-67
2021/09/09 11:31:24;;;;;;;8.53;5.80;;;25.40;99.90;;;;;;4991152;28;20452;-66
2021/09/09 11:34:00;;;;;;;8.73;5.57;;;25.30;99.90;;;;;;4972578;28;22187;-66
2021/09/09 11:36:35;;;;;;;7.70;6.00;;;25.30;99.90;;;;;;4980718;28;20468;-66
2021/09/09 11:39:06;;;;;;;6.20;5.60;;;25.40;99.90;;;;;;4976314;28;20455;-67
2021/09/09 11:41:33;;;;;;;6.47;5.23;;;25.50;99.90;;;;;;4986154;28;20453;-66
2021/09/09 11:44:04;;;;;;;6.73;5.70;;;25.30;99.90;;;;;;4990584;28;20451;-66
2021/09/09 11:46:31;;;;;;;6.40;5.80;;;25.40;99.90;;;;;;4977400;28;20484;-67
2021/09/09 11:48:56;;;;;;;6.37;5.33;;;25.50;99.90;;;;;;4980524;28;20463;-67
2021/09/09 11:51:31;;;;;;;5.90;5.40;;;25.60;99.90;;;;;;4995145;28;20424;-66
2021/09/09 11:53:56;;;;;;;11.00;6.67;;;25.40;99.90;;;;;;4983597;28;20184;-66
2021/09/09 11:56:23;;;;;;;7.63;6.20;;;25.60;99.90;;;;;;4976723;28;20466;-66
2021/09/09 11:58:49;;;;;;;6.80;5.13;;;25.80;99.90;;;;;;4983139;28;20197;-67
2021/09/09 12:01:15;;;;;;;5.90;5.30;;;26.10;99.90;;;;;;4998756;28;20873;-68
2021/09/09 12:03:44;;;;;;;5.83;4.93;;;26.50;99.90;;;;;;4978030;28;20513;-66
2021/09/09 12:06:11;;;;;;;7.50;6.17;;;26.80;99.90;;;;;;4982480;28;20593;-67
2021/09/09 12:08:39;;;;;;;6.10;5.50;;;26.90;99.90;;;;;;4983420;28;20981;-67
2021/09/09 12:11:10;;;;;;;6.00;5.40;;;26.80;99.90;;;;;;4986884;28;20444;-68
2021/09/09 12:13:39;;;;;;;7.60;6.80;;;26.60;99.90;;;;;;4981054;28;20440;-66
2021/09/09 12:16:17;;;;;;;6.77;6.00;;;26.40;99.90;;;;;;4984231;28;20453;-67
2021/09/09 12:18:49;;;;;;;9.00;5.50;;;26.40;99.90;;;;;;4992830;28;20860;-68
2021/09/09 12:21:17;;;;;;;6.67;6.03;;;26.30;99.90;;;;;;4985045;28;20928;-69
2021/09/09 12:24:11;;;;;;;6.83;6.20;;;26.20;99.90;;;;;;4999398;28;20456;-68
2021/09/09 12:26:39;;;;;;;8.33;6.00;;;26.00;99.90;;;;;;4981720;28;20921;-67
2021/09/09 12:29:39;;;;;;;8.87;5.90;;;26.00;99.90;;;;;;4985393;28;20798;-67
2021/09/09 12:32:29;;;;;;;7.40;6.00;;;26.10;99.90;;;;;;4985007;28;20417;-68
2021/09/09 12:35:15;;;;;;;6.77;6.23;;;26.10;99.90;;;;;;4978990;28;20449;-67
2021/09/09 12:37:41;;;;;;;7.20;6.20;;;26.30;99.90;;;;;;4982347;28;20465;-68
2021/09/09 12:40:07;;;;;;;6.83;6.03;;;26.30;99.90;;;;;;4985003;28;20445;-68
2021/09/09 12:42:33;;;;;;;8.70;6.50;;;26.40;99.90;;;;;;4981734;28;20232;-67
2021/09/09 12:44:59;;;;;;;7.33;6.17;;;26.40;99.90;;;;;;4980657;28;20818;-69
2021/09/09 12:47:25;;;;;;;7.27;6.67;;;26.80;99.90;;;;;;4984499;28;20299;-68
2021/09/09 12:49:51;;;;;;;8.50;6.07;;;27.00;99.90;;;;;;4978621;28;20527;-67